Time;durP1;ratioP1;P1;durP2;ratioP2;P2;SDS_P1;SDS_P2;PMS_P1;PMS_P2;Temp;Humidity;BMP_temperature;BMP_pressure;BME280_temperature;BME280_humidity;BME280_pressure;Samples;Min_cycle;Max_cycle;Signal;HPM_P1;HPM_P2
2022/03/15 00:01:13;;;;;;;17.67;13.63;;;8.20;99.90;;;;;;5080623;28;20231;-47
2022/03/15 00:03:41;;;;;;;19.95;13.93;;;7.50;99.90;;;;;;5080448;28;20282;-46
2022/03/15 00:06:08;;;;;;;21.17;13.25;;;7.50;99.90;;;;;;5080698;28;20201;-52
2022/03/15 00:08:36;;;;;;;17.85;12.45;;;7.60;99.90;;;;;;5080704;28;20218;-47
2022/03/15 00:11:07;;;;;;;20.27;12.40;;;7.60;99.90;;;;;;5080189;28;20289;-45
2022/03/15 00:13:38;;;;;;;19.90;13.60;;;7.30;99.90;;;;;;5081032;28;20195;-49
2022/03/15 00:16:07;;;;;;;17.05;12.43;;;7.30;99.90;;;;;;5080314;28;20405;-45
2022/03/15 00:18:35;;;;;;;15.68;11.90;;;7.40;99.90;;;;;;5080667;28;20206;-45
2022/03/15 00:21:04;;;;;;;15.30;11.48;;;7.50;99.90;;;;;;5084518;28;20223;-45
2022/03/15 00:23:32;;;;;;;21.02;13.43;;;7.50;99.90;;;;;;5087063;28;20201;-48
2022/03/15 00:26:02;;;;;;;22.15;14.77;;;7.50;99.90;;;;;;5067237;28;20199;-46
2022/03/15 00:28:30;;;;;;;17.58;11.25;;;7.60;99.90;;;;;;5060894;28;20191;-47
2022/03/15 00:30:59;;;;;;;14.40;11.02;;;7.80;99.90;;;;;;5070867;28;20226;-44
2022/03/15 00:33:27;;;;;;;18.25;11.98;;;7.90;99.90;;;;;;5080615;28;20234;-47
2022/03/15 00:35:54;;;;;;;16.80;11.85;;;8.00;99.90;;;;;;5081174;28;20206;-46
2022/03/15 00:38:22;;;;;;;15.30;12.13;;;8.20;99.90;;;;;;5080129;28;20230;-44
2022/03/15 00:40:49;;;;;;;19.83;11.05;;;8.20;99.90;;;;;;5079449;28;20526;-48
2022/03/15 00:43:16;;;;;;;15.77;10.90;;;8.40;99.90;;;;;;5080577;28;20194;-45
2022/03/15 00:45:44;;;;;;;15.43;11.15;;;8.30;99.90;;;;;;5080086;28;20241;-47
2022/03/15 00:48:11;;;;;;;12.85;8.77;;;8.30;99.90;;;;;;5080641;28;20198;-47
2022/03/15 00:50:41;;;;;;;13.73;8.57;;;8.30;99.90;;;;;;5079528;28;20537;-45
2022/03/15 00:53:09;;;;;;;16.50;9.48;;;8.30;99.90;;;;;;5080091;28;20206;-44
2022/03/15 00:55:37;;;;;;;11.88;9.80;;;8.40;99.90;;;;;;5079598;28;20211;-46
2022/03/15 00:58:05;;;;;;;15.75;10.13;;;8.00;99.90;;;;;;5080648;28;20199;-46
2022/03/15 01:00:35;;;;;;;13.80;9.55;;;7.90;99.90;;;;;;5080086;28;20222;-48
2022/03/15 01:03:04;;;;;;;20.95;10.75;;;8.10;99.90;;;;;;5080322;28;20195;-45
2022/03/15 01:05:32;;;;;;;10.40;8.43;;;8.30;99.90;;;;;;5079526;28;20223;-46
2022/03/15 01:07:59;;;;;;;16.20;10.15;;;8.30;99.90;;;;;;5079528;28;20196;-47
2022/03/15 01:10:26;;;;;;;10.75;8.82;;;8.40;99.90;;;;;;5079726;28;20466;-46
2022/03/15 01:12:53;;;;;;;15.98;9.13;;;8.50;99.90;;;;;;5079385;28;20203;-45
2022/03/15 01:15:24;;;;;;;12.68;8.93;;;8.50;99.90;;;;;;5080090;28;20204;-46
2022/03/15 01:17:52;;;;;;;15.85;10.23;;;8.50;99.90;;;;;;5079908;28;20199;-47
2022/03/15 01:20:20;;;;;;;13.88;10.27;;;8.50;99.90;;;;;;5080437;28;20251;-49
2022/03/15 01:22:47;;;;;;;12.75;9.27;;;8.80;99.90;;;;;;5079920;28;20203;-47
2022/03/15 01:25:14;;;;;;;13.75;8.88;;;8.80;99.90;;;;;;5079918;28;20238;-46
2022/03/15 01:27:41;;;;;;;11.57;9.48;;;8.90;99.90;;;;;;5079840;28;20200;-47
2022/03/15 01:30:09;;;;;;;18.08;9.88;;;8.90;99.90;;;;;;5079679;28;20261;-48
2022/03/15 01:32:36;;;;;;;15.95;10.50;;;8.80;99.90;;;;;;5079988;28;20199;-46
2022/03/15 01:35:04;;;;;;;14.57;11.40;;;8.90;99.90;;;;;;5079801;28;20246;-45
2022/03/15 01:37:32;;;;;;;11.85;8.93;;;9.00;99.90;;;;;;5079839;28;20198;-43
2022/03/15 01:40:00;;;;;;;11.50;8.75;;;9.00;99.90;;;;;;5079709;28;20288;-45
2022/03/15 01:42:27;;;;;;;12.52;9.48;;;8.80;99.90;;;;;;5081640;28;20205;-46
2022/03/15 01:44:55;;;;;;;16.20;8.63;;;8.70;99.90;;;;;;5083110;28;20563;-50
2022/03/15 01:47:22;;;;;;;16.33;9.10;;;8.70;99.90;;;;;;5083014;28;20245;-47
2022/03/15 01:49:49;;;;;;;10.90;8.35;;;8.70;99.90;;;;;;5083413;28;20215;-47
2022/03/15 01:52:17;;;;;;;14.68;9.60;;;8.40;99.90;;;;;;5084602;28;20195;-47
2022/03/15 01:54:46;;;;;;;11.80;8.27;;;8.20;99.90;;;;;;5086693;28;20509;-46
2022/03/15 01:57:13;;;;;;;12.23;8.35;;;8.40;99.90;;;;;;5083309;28;20433;-45
2022/03/15 01:59:40;;;;;;;13.98;9.18;;;8.50;99.90;;;;;;5082703;28;20262;-46
2022/03/15 02:02:09;;;;;;;13.52;8.13;;;8.40;99.90;;;;;;5082784;28;20199;-48
2022/03/15 02:04:37;;;;;;;8.73;7.80;;;8.20;99.90;;;;;;5082626;28;20288;-46
2022/03/15 02:07:07;;;;;;;10.70;8.48;;;8.10;99.90;;;;;;5083142;28;20225;-50
2022/03/15 02:09:34;;;;;;;17.65;8.70;;;8.00;99.90;;;;;;5082649;28;20607;-48
2022/03/15 02:12:02;;;;;;;9.27;8.23;;;8.10;99.90;;;;;;5083099;28;20652;-46
2022/03/15 02:14:29;;;;;;;9.32;8.27;;;8.20;99.90;;;;;;5082466;28;20371;-44
2022/03/15 02:16:57;;;;;;;12.65;9.13;;;8.40;99.90;;;;;;5082835;28;20206;-49
2022/03/15 02:19:24;;;;;;;13.27;9.35;;;8.30;99.90;;;;;;5082467;28;20199;-47
2022/03/15 02:21:52;;;;;;;11.85;8.45;;;8.30;99.90;;;;;;5082463;28;20223;-49
2022/03/15 02:24:20;;;;;;;11.40;7.80;;;8.40;99.90;;;;;;5082785;28;20248;-46
2022/03/15 02:26:47;;;;;;;9.25;7.63;;;8.40;99.90;;;;;;5083064;28;20199;-47
2022/03/15 02:29:14;;;;;;;12.73;7.75;;;8.10;99.90;;;;;;5083402;28;20556;-45
2022/03/15 02:31:42;;;;;;;10.60;8.07;;;7.80;99.90;;;;;;5083304;28;20199;-47
2022/03/15 02:34:10;;;;;;;10.93;8.80;;;7.50;99.90;;;;;;5083165;28;20199;-48
2022/03/15 02:36:37;;;;;;;9.30;8.25;;;7.20;99.90;;;;;;5083333;28;20198;-46
2022/03/15 02:39:05;;;;;;;11.48;8.20;;;7.40;99.90;;;;;;5083638;28;20199;-46
2022/03/15 02:41:32;;;;;;;13.55;8.00;;;7.50;99.90;;;;;;5082000;28;20230;-45
2022/03/15 02:44:00;;;;;;;13.25;8.70;;;7.40;99.90;;;;;;5082933;28;20202;-46
2022/03/15 02:46:29;;;;;;;12.93;8.50;;;7.30;99.90;;;;;;5082055;28;20203;-48
2022/03/15 02:48:57;;;;;;;10.27;8.25;;;7.10;99.90;;;;;;5081825;28;20195;-45
2022/03/15 02:51:25;;;;;;;15.48;10.27;;;7.00;99.90;;;;;;5082271;28;20256;-46
2022/03/15 02:53:53;;;;;;;17.35;8.57;;;6.90;99.90;;;;;;5081934;28;20198;-44
2022/03/15 02:56:21;;;;;;;14.93;9.68;;;6.60;99.90;;;;;;5082901;28;20205;-48
2022/03/15 02:58:49;;;;;;;15.90;9.25;;;6.60;99.90;;;;;;5082869;28;20200;-46
2022/03/15 03:01:16;;;;;;;15.75;8.52;;;6.50;99.90;;;;;;5082965;28;20227;-45
2022/03/15 03:03:44;;;;;;;14.15;8.35;;;6.40;99.90;;;;;;5080647;28;20213;-46
2022/03/15 03:06:12;;;;;;;11.63;9.10;;;6.10;99.90;;;;;;5082418;28;20397;-47
2022/03/15 03:08:39;;;;;;;19.73;7.88;;;5.90;99.90;;;;;;5081880;28;20195;-48
2022/03/15 03:11:07;;;;;;;14.82;8.57;;;5.70;99.90;;;;;;5081829;28;20568;-49
2022/03/15 03:13:37;;;;;;;12.75;8.55;;;5.60;99.90;;;;;;5082106;28;20220;-46
2022/03/15 03:16:06;;;;;;;11.02;7.43;;;5.40;99.90;;;;;;5081939;28;20214;-48
2022/03/15 03:18:34;;;;;;;9.05;6.72;;;5.30;99.90;;;;;;5081338;28;20498;-48
2022/03/15 03:21:04;;;;;;;15.00;8.90;;;5.40;99.90;;;;;;5081252;28;20456;-46
2022/03/15 03:23:33;;;;;;;11.00;7.75;;;5.30;99.90;;;;;;5081274;28;20195;-46
2022/03/15 03:26:02;;;;;;;11.63;6.95;;;5.40;99.90;;;;;;5081428;28;20241;-49
2022/03/15 03:28:33;;;;;;;13.55;6.82;;;5.40;99.90;;;;;;5081692;28;20195;-47
2022/03/15 03:31:01;;;;;;;12.68;6.97;;;5.70;99.90;;;;;;5073952;28;20229;-45
2022/03/15 03:33:28;;;;;;;13.13;6.50;;;5.80;99.90;;;;;;5083264;28;20222;-47
2022/03/15 03:35:56;;;;;;;16.98;8.60;;;5.90;99.90;;;;;;5099612;28;20198;-47
2022/03/15 03:38:23;;;;;;;11.95;7.22;;;5.90;99.90;;;;;;5101554;28;20198;-45
2022/03/15 03:40:50;;;;;;;14.50;6.78;;;5.90;99.90;;;;;;5101360;28;20234;-46
2022/03/15 03:43:17;;;;;;;12.23;6.55;;;5.90;99.90;;;;;;5101067;28;20194;-48
2022/03/15 03:45:45;;;;;;;7.50;6.20;;;6.00;99.90;;;;;;5101639;28;20194;-47
2022/03/15 03:48:12;;;;;;;6.82;6.10;;;6.20;99.90;;;;;;5101559;28;20197;-48
2022/03/15 03:50:40;;;;;;;9.45;6.20;;;6.30;99.90;;;;;;5101233;28;20218;-48
2022/03/15 03:53:07;;;;;;;6.95;5.88;;;6.20;99.90;;;;;;5101385;28;20584;-47
2022/03/15 03:55:35;;;;;;;6.40;5.20;;;6.10;99.90;;;;;;5100829;28;20202;-47
2022/03/15 03:58:02;;;;;;;8.38;5.45;;;6.20;99.90;;;;;;5101406;28;20543;-52
2022/03/15 04:00:30;;;;;;;5.57;5.05;;;6.20;99.90;;;;;;5082351;28;20227;-50
2022/03/15 04:03:00;;;;;;;9.23;6.07;;;6.20;99.90;;;;;;5081368;28;20502;-47
2022/03/15 04:05:30;;;;;;;12.38;6.80;;;6.20;99.90;;;;;;5080667;28;20213;-50
2022/03/15 04:08:01;;;;;;;6.63;5.07;;;6.30;99.90;;;;;;5081860;28;20202;-46
2022/03/15 04:10:34;;;;;;;8.38;5.72;;;6.40;99.90;;;;;;5081366;28;20425;-46
2022/03/15 04:13:02;;;;;;;10.05;6.30;;;6.50;99.90;;;;;;5082060;28;20393;-47
2022/03/15 04:15:34;;;;;;;9.23;6.75;;;6.40;99.90;;;;;;5081634;28;20203;-45
2022/03/15 04:18:03;;;;;;;7.20;6.50;;;6.50;99.90;;;;;;5081489;28;20213;-47
2022/03/15 04:20:32;;;;;;;10.18;6.70;;;6.60;99.90;;;;;;5081527;28;20225;-46
2022/03/15 04:23:00;;;;;;;10.43;7.20;;;6.50;99.90;;;;;;5081762;28;20257;-48
2022/03/15 04:25:27;;;;;;;7.80;5.93;;;6.60;99.90;;;;;;5081031;28;20225;-47
2022/03/15 04:27:59;;;;;;;8.55;6.20;;;6.60;99.90;;;;;;5080334;28;20240;-46
2022/03/15 04:30:28;;;;;;;11.90;6.20;;;6.50;99.90;;;;;;5081457;28;20246;-47
2022/03/15 04:32:56;;;;;;;15.45;6.32;;;6.70;99.90;;;;;;5081252;28;20194;-45
2022/03/15 04:35:25;;;;;;;13.93;8.00;;;6.80;99.90;;;;;;5081501;28;20224;-46
2022/03/15 04:37:52;;;;;;;10.98;6.72;;;6.90;99.90;;;;;;5081624;28;20237;-49
2022/03/15 04:40:20;;;;;;;14.40;7.93;;;6.80;99.90;;;;;;5083456;28;20222;-48
2022/03/15 04:42:52;;;;;;;10.52;7.32;;;6.80;99.90;;;;;;5082258;28;20206;-47
2022/03/15 04:45:19;;;;;;;12.07;7.47;;;6.90;99.90;;;;;;5081619;28;20199;-50
2022/03/15 04:47:47;;;;;;;10.30;6.40;;;7.30;99.90;;;;;;5081438;28;20472;-46
2022/03/15 04:50:15;;;;;;;11.65;8.23;;;7.00;99.90;;;;;;5081002;28;20223;-49
2022/03/15 04:52:42;;;;;;;12.50;8.65;;;7.20;99.90;;;;;;5080482;28;20209;-51
2022/03/15 04:55:09;;;;;;;12.13;6.32;;;7.30;99.90;;;;;;5080888;28;20431;-48
2022/03/15 04:57:36;;;;;;;9.23;7.05;;;7.40;99.90;;;;;;5080606;28;20252;-47
2022/03/15 05:00:08;;;;;;;10.32;6.78;;;7.40;99.90;;;;;;5080011;28;20215;-49
2022/03/15 05:02:40;;;;;;;9.32;5.25;;;7.40;99.90;;;;;;5083713;28;20230;-47
2022/03/15 05:05:08;;;;;;;10.25;5.72;;;7.30;99.90;;;;;;5101821;28;20233;-52
2022/03/15 05:07:35;;;;;;;11.85;7.38;;;7.30;99.90;;;;;;5106812;28;20186;-49
2022/03/15 05:12:50;;;;;;;9.25;6.70;;;6.90;99.90;;;;;;5076729;28;20201;-45
2022/03/15 05:15:17;;;;;;;10.00;7.40;;;7.00;99.90;;;;;;5078852;28;20203;-52
2022/03/15 05:17:45;;;;;;;8.25;5.55;;;7.10;99.90;;;;;;5078219;28;20202;-49
2022/03/15 05:20:14;;;;;;;10.27;7.40;;;6.90;99.90;;;;;;5072441;28;20218;-44
2022/03/15 05:22:43;;;;;;;11.98;8.73;;;6.90;99.90;;;;;;5074250;28;20254;-47
2022/03/15 05:25:13;;;;;;;16.40;6.57;;;6.80;99.90;;;;;;5078437;28;20198;-48
2022/03/15 05:27:41;;;;;;;11.18;8.27;;;7.10;99.90;;;;;;5068763;28;20355;-46
2022/03/15 05:30:09;;;;;;;11.95;8.00;;;7.40;99.90;;;;;;5076546;28;20235;-48
2022/03/15 05:32:37;;;;;;;10.73;7.45;;;7.60;99.90;;;;;;5069129;28;20214;-47
2022/03/15 05:35:04;;;;;;;11.10;7.13;;;7.60;99.90;;;;;;5092342;28;20205;-49
2022/03/15 05:37:32;;;;;;;12.98;7.55;;;7.70;99.90;;;;;;5089253;28;20199;-45
2022/03/15 05:40:00;;;;;;;13.18;7.10;;;7.50;99.90;;;;;;5076679;28;20227;-45
2022/03/15 05:42:28;;;;;;;9.95;7.30;;;7.30;99.90;;;;;;5073530;28;20554;-47
2022/03/15 05:44:56;;;;;;;27.33;8.60;;;7.30;99.90;;;;;;5076148;28;20199;-50
2022/03/15 05:47:23;;;;;;;14.88;7.72;;;7.50;99.90;;;;;;5072643;28;20260;-46
2022/03/15 05:49:51;;;;;;;10.77;6.63;;;7.50;99.90;;;;;;5080580;28;20219;-46
2022/03/15 05:52:18;;;;;;;9.68;7.03;;;7.50;99.90;;;;;;5081571;28;20210;-48
2022/03/15 05:54:45;;;;;;;12.68;7.82;;;7.60;99.90;;;;;;5082187;28;20207;-48
2022/03/15 05:57:13;;;;;;;12.38;8.55;;;7.60;99.90;;;;;;5083467;28;20209;-45
2022/03/15 05:59:41;;;;;;;14.02;7.75;;;7.80;99.90;;;;;;5081314;28;20237;-47
2022/03/15 06:02:09;;;;;;;10.93;8.18;;;7.90;99.90;;;;;;5084229;28;20244;-52
2022/03/15 06:04:37;;;;;;;19.98;9.60;;;7.80;99.90;;;;;;5086461;28;20727;-46
2022/03/15 06:07:05;;;;;;;14.63;8.55;;;8.00;99.90;;;;;;5084600;28;20195;-50
2022/03/15 06:09:33;;;;;;;13.85;9.82;;;8.10;99.90;;;;;;5083043;28;20588;-50
2022/03/15 06:12:01;;;;;;;17.65;10.00;;;8.00;99.90;;;;;;5084001;28;20199;-45
2022/03/15 06:14:29;;;;;;;15.50;9.30;;;8.20;99.90;;;;;;5084628;28;20202;-50
2022/03/15 06:16:56;;;;;;;13.90;9.18;;;8.30;99.90;;;;;;5083728;28;20533;-49
2022/03/15 06:19:24;;;;;;;12.70;9.13;;;8.70;99.90;;;;;;5083104;28;20202;-48
2022/03/15 06:21:52;;;;;;;13.68;7.93;;;9.50;99.90;;;;;;5084438;28;20285;-45
2022/03/15 06:24:19;;;;;;;12.48;7.80;;;10.60;99.90;;;;;;5083874;28;20215;-50
2022/03/15 06:26:47;;;;;;;11.18;8.18;;;11.70;99.90;;;;;;5082656;28;20197;-50
2022/03/15 06:29:15;;;;;;;12.93;9.50;;;12.70;99.90;;;;;;5083135;28;20195;-44
2022/03/15 06:31:42;;;;;;;16.85;8.02;;;13.50;99.90;;;;;;5082876;28;20271;-48
2022/03/15 06:34:09;;;;;;;14.63;8.02;;;14.10;99.90;;;;;;5083529;28;20233;-48
2022/03/15 06:36:37;;;;;;;11.52;8.13;;;14.60;99.90;;;;;;5082210;28;20212;-48
2022/03/15 06:39:05;;;;;;;19.35;10.02;;;15.10;99.90;;;;;;5083279;28;20211;-49
2022/03/15 06:41:39;;;;;;;13.67;8.03;;;15.00;99.90;;;;;;5081926;28;20222;-46
2022/03/15 06:44:06;;;;;;;12.90;9.63;;;15.20;99.90;;;;;;5080981;28;20424;-47
2022/03/15 06:46:34;;;;;;;18.53;11.20;;;15.20;99.90;;;;;;5080339;28;20459;-48
2022/03/15 06:49:02;;;;;;;13.67;8.33;;;14.90;99.90;;;;;;5069204;28;20500;-48
2022/03/15 06:51:29;;;;;;;12.47;8.93;;;15.30;99.90;;;;;;5061279;28;20436;-49
2022/03/15 06:53:56;;;;;;;14.70;9.00;;;15.40;99.90;;;;;;5061796;28;20442;-51
2022/03/15 06:56:24;;;;;;;14.07;8.00;;;15.50;99.90;;;;;;5061737;28;20471;-53
2022/03/15 06:58:52;;;;;;;12.57;7.40;;;15.50;99.90;;;;;;5060871;28;20406;-44
2022/03/15 07:01:19;;;;;;;10.60;7.80;;;16.00;99.90;;;;;;5061809;28;20451;-48
2022/03/15 07:03:49;;;;;;;9.40;7.10;;;16.00;99.90;;;;;;5061135;28;20434;-51
2022/03/15 07:06:16;;;;;;;10.77;8.30;;;16.10;99.90;;;;;;5063431;28;20508;-50
2022/03/15 07:08:44;;;;;;;13.23;7.50;;;16.20;99.90;;;;;;5065568;28;20403;-49
2022/03/15 07:11:11;;;;;;;18.13;7.77;;;16.90;99.90;;;;;;5067443;28;20461;-49
2022/03/15 07:13:38;;;;;;;10.13;8.27;;;17.70;99.90;;;;;;5067820;28;20437;-53
2022/03/15 07:16:06;;;;;;;10.30;7.00;;;18.10;99.90;;;;;;5081421;28;20436;-54
2022/03/15 07:18:34;;;;;;;17.87;7.80;;;18.50;99.90;;;;;;5086929;28;20407;-50
2022/03/15 07:21:01;;;;;;;12.67;7.90;;;19.10;99.90;;;;;;5082521;28;20655;-46
2022/03/15 07:23:29;;;;;;;10.33;8.30;;;19.50;98.40;;;;;;5081164;28;20505;-50
2022/03/15 07:25:57;;;;;;;12.70;9.13;;;19.90;97.20;;;;;;5080873;28;20434;-50
2022/03/15 07:28:24;;;;;;;15.63;7.07;;;20.80;95.70;;;;;;5081073;28;20594;-50
2022/03/15 07:30:52;;;;;;;7.87;7.07;;;20.80;94.10;;;;;;5076101;28;20447;-46
2022/03/15 07:33:19;;;;;;;12.97;8.17;;;21.40;92.70;;;;;;5083726;28;20512;-45
2022/03/15 07:35:46;;;;;;;9.60;6.90;;;21.50;91.90;;;;;;5083057;28;20422;-46
2022/03/15 07:38:17;;;;;;;11.50;7.93;;;21.50;91.10;;;;;;5080016;28;20635;-50
2022/03/15 07:40:45;;;;;;;10.30;7.50;;;21.10;91.30;;;;;;5081029;28;20493;-46
2022/03/15 07:43:12;;;;;;;7.73;6.40;;;21.00;91.30;;;;;;5079545;28;20513;-49
2022/03/15 07:45:40;;;;;;;8.87;7.20;;;21.50;90.50;;;;;;5079921;28;20410;-50
2022/03/15 07:48:13;;;;;;;9.50;5.60;;;22.00;88.70;;;;;;5080875;28;20442;-47
2022/03/15 07:50:41;;;;;;;12.73;9.30;;;22.60;86.50;;;;;;5074760;28;20460;-49
2022/03/15 07:53:08;;;;;;;8.20;6.43;;;22.60;85.40;;;;;;5084677;28;20602;-50
2022/03/15 07:55:36;;;;;;;9.63;6.33;;;22.80;84.30;;;;;;5068069;28;20436;-50
2022/03/15 07:58:04;;;;;;;10.93;6.73;;;22.80;82.50;;;;;;5071646;28;20705;-46
2022/03/15 08:00:31;;;;;;;7.73;6.93;;;23.00;81.30;;;;;;5068039;28;20754;-45
2022/03/15 08:02:59;;;;;;;10.90;7.80;;;22.90;80.40;;;;;;5072468;28;20479;-51
2022/03/15 08:05:28;;;;;;;11.03;7.53;;;23.30;79.10;;;;;;5068754;28;20437;-49
2022/03/15 08:07:57;;;;;;;8.13;6.33;;;23.40;78.90;;;;;;5067011;28;20439;-51
2022/03/15 08:10:24;;;;;;;9.63;6.40;;;23.20;79.30;;;;;;5084862;28;20498;-45
2022/03/15 08:12:51;;;;;;;10.47;6.97;;;22.80;80.10;;;;;;5077785;28;20563;-48
2022/03/15 08:15:19;;;;;;;7.07;6.37;;;23.70;77.60;;;;;;5080518;28;20439;-50
2022/03/15 08:17:47;;;;;;;7.83;7.00;;;24.30;75.30;;;;;;5077057;28;20745;-49
2022/03/15 08:20:18;;;;;;;9.73;6.77;;;24.50;73.60;;;;;;5068970;28;20490;-48
2022/03/15 08:22:47;;;;;;;7.60;6.47;;;23.00;77.30;;;;;;5084265;28;20853;-45
2022/03/15 08:25:14;;;;;;;8.30;6.80;;;22.80;77.50;;;;;;5080251;28;20432;-50
2022/03/15 08:27:42;;;;;;;11.27;6.43;;;24.10;75.20;;;;;;5079925;28;20432;-51
2022/03/15 08:30:10;;;;;;;9.83;6.90;;;24.20;73.10;;;;;;5079879;28;20493;-50
2022/03/15 08:32:37;;;;;;;7.10;6.00;;;24.30;73.40;;;;;;5079480;28;20442;-48
2022/03/15 08:35:05;;;;;;;9.57;5.80;;;24.20;72.70;;;;;;5069128;28;20433;-46
2022/03/15 08:37:34;;;;;;;22.13;6.67;;;24.00;72.50;;;;;;5065182;28;20697;-46
2022/03/15 08:40:03;;;;;;;15.70;7.77;;;24.10;72.50;;;;;;5068199;28;20476;-48
2022/03/15 08:42:30;;;;;;;11.23;8.03;;;24.40;71.70;;;;;;5073598;28;20824;-47
2022/03/15 08:44:58;;;;;;;14.10;7.73;;;24.10;71.70;;;;;;5091468;28;20507;-52
2022/03/15 08:47:28;;;;;;;11.10;7.20;;;24.10;72.30;;;;;;5099176;28;20621;-50
2022/03/15 08:49:55;;;;;;;16.57;7.87;;;24.00;72.20;;;;;;5082834;28;20494;-49
2022/03/15 08:52:23;;;;;;;10.27;8.73;;;24.30;72.00;;;;;;5076523;28;20825;-47
2022/03/15 08:54:51;;;;;;;8.27;6.97;;;24.00;71.90;;;;;;5095725;28;20680;-52
2022/03/15 08:57:18;;;;;;;10.93;6.83;;;23.50;72.10;;;;;;5070307;28;20499;-49
2022/03/15 08:59:48;;;;;;;10.77;6.60;;;22.80;75.30;;;;;;5089552;28;20457;-53
2022/03/15 09:02:17;;;;;;;8.60;6.30;;;23.70;73.50;;;;;;5104142;28;20537;-48
2022/03/15 09:04:44;;;;;;;9.20;7.57;;;23.60;73.10;;;;;;5104100;28;20438;-50
2022/03/15 09:07:12;;;;;;;7.27;6.50;;;23.20;73.10;;;;;;5102808;28;20724;-45
2022/03/15 09:09:40;;;;;;;10.53;6.83;;;22.80;74.30;;;;;;5104104;28;20638;-50
2022/03/15 09:12:08;;;;;;;8.73;6.40;;;22.40;76.20;;;;;;5103646;28;20430;-50
2022/03/15 09:14:35;;;;;;;12.40;8.90;;;22.50;75.80;;;;;;5103870;28;20426;-51
2022/03/15 09:17:03;;;;;;;16.97;8.80;;;22.40;75.90;;;;;;5082552;28;20440;-48
2022/03/15 09:19:30;;;;;;;9.37;7.90;;;22.70;75.30;;;;;;5082842;28;20459;-50
2022/03/15 09:22:01;;;;;;;9.70;8.70;;;22.20;75.50;;;;;;5081373;28;20534;-50
2022/03/15 09:24:30;;;;;;;18.40;7.17;;;22.30;76.80;;;;;;5084861;28;20410;-48
2022/03/15 09:26:57;;;;;;;9.47;7.40;;;22.90;74.90;;;;;;5085175;28;20752;-49
2022/03/15 09:29:24;;;;;;;9.57;7.70;;;23.10;74.60;;;;;;5095149;28;20466;-48
2022/03/15 09:31:53;;;;;;;14.83;7.90;;;23.40;73.20;;;;;;5074703;28;20432;-46
2022/03/15 09:34:22;;;;;;;8.03;7.23;;;22.80;75.00;;;;;;5086277;28;20565;-51
2022/03/15 09:36:50;;;;;;;11.10;7.57;;;21.80;77.50;;;;;;5100741;28;20431;-53
2022/03/15 09:39:21;;;;;;;8.63;7.60;;;20.70;80.10;;;;;;5104096;28;20642;-49
2022/03/15 09:41:52;;;;;;;20.53;10.43;;;19.80;82.60;;;;;;5103242;28;20433;-50
2022/03/15 09:44:20;;;;;;;14.87;8.77;;;19.00;86.20;;;;;;5103401;28;20450;-51
2022/03/15 09:46:51;;;;;;;12.20;8.23;;;18.70;87.40;;;;;;5103126;28;20427;-48
2022/03/15 09:49:25;;;;;;;14.40;10.50;;;18.90;87.20;;;;;;5105743;28;20393;-54
2022/03/15 09:51:55;;;;;;;12.33;9.20;;;18.60;88.70;;;;;;5100408;28;20424;-54
2022/03/15 09:54:25;;;;;;;15.77;10.67;;;18.40;89.00;;;;;;5089647;28;20402;-55
2022/03/15 09:56:53;;;;;;;22.13;11.77;;;18.30;89.70;;;;;;5080522;28;20787;-46
2022/03/15 09:59:22;;;;;;;16.90;10.30;;;18.30;90.20;;;;;;5095484;28;20468;-50
2022/03/15 10:01:51;;;;;;;22.43;10.83;;;17.60;90.80;;;;;;5083374;28;20406;-51
2022/03/15 10:04:20;;;;;;;16.40;10.70;;;17.40;91.50;;;;;;5083201;28;20436;-50
2022/03/15 10:06:49;;;;;;;17.03;10.47;;;17.30;91.80;;;;;;5082705;28;20402;-48
2022/03/15 10:09:16;;;;;;;16.30;9.43;;;17.10;92.30;;;;;;5083257;28;20435;-52
2022/03/15 10:11:43;;;;;;;12.33;10.30;;;16.90;92.60;;;;;;5083210;28;20419;-48
2022/03/15 10:14:11;;;;;;;15.73;11.27;;;16.70;93.00;;;;;;5082969;28;20427;-48
2022/03/15 10:16:41;;;;;;;16.23;11.50;;;16.70;93.30;;;;;;5075586;28;20426;-54
2022/03/15 10:19:11;;;;;;;14.17;10.43;;;16.50;93.80;;;;;;5074886;28;20413;-50
2022/03/15 10:21:46;;;;;;;13.20;9.30;;;16.40;94.10;;;;;;5071546;28;20485;-47
2022/03/15 10:24:18;;;;;;;18.00;11.23;;;16.60;94.20;;;;;;5082552;28;20504;-51
2022/03/15 10:26:47;;;;;;;16.73;10.47;;;16.70;94.00;;;;;;5084340;28;20410;-47
2022/03/15 10:29:16;;;;;;;18.07;9.80;;;17.00;93.80;;;;;;5075181;28;20436;-48
2022/03/15 10:31:44;;;;;;;13.17;9.90;;;16.90;93.60;;;;;;5066129;28;20487;-49
2022/03/15 10:34:13;;;;;;;15.60;10.63;;;16.90;94.20;;;;;;5071815;28;20406;-49
2022/03/15 10:36:43;;;;;;;17.17;10.73;;;17.00;94.20;;;;;;5080752;28;20420;-47
2022/03/15 10:39:13;;;;;;;13.27;9.33;;;17.00;93.90;;;;;;5074414;28;20644;-51
2022/03/15 10:41:45;;;;;;;14.33;9.50;;;16.90;93.60;;;;;;5087805;28;20480;-45
2022/03/15 10:44:16;;;;;;;14.40;9.43;;;16.90;94.20;;;;;;5081052;28;20449;-47
2022/03/15 10:46:44;;;;;;;14.20;8.30;;;16.60;93.80;;;;;;5076472;28;20752;-44
2022/03/15 10:49:13;;;;;;;14.77;8.53;;;16.90;94.00;;;;;;5086369;28;20497;-49
2022/03/15 10:51:47;;;;;;;9.90;7.63;;;16.90;93.20;;;;;;5101904;28;20435;-51
2022/03/15 10:54:15;;;;;;;13.10;9.27;;;16.90;93.00;;;;;;5101970;28;20743;-49
2022/03/15 10:56:51;;;;;;;13.50;7.60;;;17.30;92.70;;;;;;5073955;28;20440;-47
2022/03/15 10:59:21;;;;;;;9.27;6.70;;;17.40;91.80;;;;;;5082845;28;20422;-52
2022/03/15 11:01:49;;;;;;;13.17;8.30;;;17.30;91.70;;;;;;5083489;28;20410;-53
2022/03/15 11:04:18;;;;;;;9.93;6.70;;;16.80;92.30;;;;;;5083354;28;20893;-49
2022/03/15 11:06:47;;;;;;;11.63;7.47;;;16.70;92.80;;;;;;5082740;28;20428;-46
2022/03/15 11:09:19;;;;;;;12.97;9.00;;;16.50;93.10;;;;;;5082747;28;20430;-50
2022/03/15 11:11:52;;;;;;;13.27;7.67;;;16.50;93.40;;;;;;5081501;28;20410;-48
2022/03/15 11:14:42;;;;;;;11.80;7.60;;;16.80;93.40;;;;;;5085996;28;20435;-47
2022/03/15 11:17:13;;;;;;;11.90;7.30;;;16.80;93.40;;;;;;5080827;28;20402;-48
2022/03/15 11:19:45;;;;;;;9.63;7.73;;;16.80;93.00;;;;;;5081040;28;20498;-52
2022/03/15 11:22:14;;;;;;;8.53;7.47;;;16.50;93.10;;;;;;5079734;28;20839;-50
2022/03/15 11:24:57;;;;;;;8.53;6.67;;;16.60;93.70;;;;;;5081201;28;20576;-50
2022/03/15 11:27:30;;;;;;;11.60;7.87;;;16.60;93.00;;;;;;5081169;28;20438;-47
2022/03/15 11:30:02;;;;;;;12.23;7.07;;;16.70;93.10;;;;;;5078970;28;20437;-50
2022/03/15 11:32:32;;;;;;;16.17;7.60;;;16.00;93.50;;;;;;5075947;28;20433;-48
2022/03/15 11:35:01;;;;;;;12.27;7.03;;;16.00;93.90;;;;;;5092623;28;20411;-48
2022/03/15 11:37:30;;;;;;;9.40;6.67;;;16.30;93.80;;;;;;5101170;28;20884;-52
2022/03/15 11:40:03;;;;;;;8.47;5.50;;;16.60;92.20;;;;;;5101151;28;20425;-49
2022/03/15 11:42:33;;;;;;;8.43;6.20;;;16.80;91.80;;;;;;5100999;28;20467;-45
2022/03/15 11:45:11;;;;;;;9.03;5.50;;;16.90;91.00;;;;;;5099697;28;20404;-48
2022/03/15 11:48:17;;;;;;;5.93;4.93;;;16.90;90.70;;;;;;5100780;28;20421;-52
2022/03/15 11:51:16;;;;;;;7.20;5.83;;;17.10;88.00;;;;;;5100597;28;20439;-47
2022/03/15 11:54:14;;;;;;;6.13;5.13;;;16.90;88.90;;;;;;5100466;28;20728;-49
2022/03/15 11:56:49;;;;;;;9.03;4.20;;;17.10;88.70;;;;;;5085650;28;20632;-47
2022/03/15 11:59:17;;;;;;;7.70;5.00;;;17.30;88.60;;;;;;5081127;28;20440;-51
2022/03/15 12:01:47;;;;;;;11.17;6.50;;;17.50;89.00;;;;;;5079875;28;20499;-50
2022/03/15 12:04:17;;;;;;;10.20;5.23;;;17.40;88.90;;;;;;5075191;28;20483;-49
2022/03/15 12:06:54;;;;;;;8.07;6.23;;;17.40;88.40;;;;;;5085072;28;20442;-45
2022/03/15 12:09:26;;;;;;;5.20;4.67;;;17.50;88.80;;;;;;5060146;28;20481;-50
2022/03/15 12:12:08;;;;;;;8.33;5.90;;;17.50;89.10;;;;;;5060224;28;20428;-46
2022/03/15 12:14:47;;;;;;;7.90;6.00;;;17.60;89.60;;;;;;5060119;28;20420;-51
2022/03/15 12:17:15;;;;;;;11.93;5.93;;;17.80;88.70;;;;;;5072551;28;20434;-51
2022/03/15 12:19:47;;;;;;;6.10;5.50;;;17.40;89.30;;;;;;5079881;28;20435;-50
2022/03/15 12:22:25;;;;;;;9.73;6.60;;;17.40;90.20;;;;;;5080155;28;20416;-50
2022/03/15 12:25:14;;;;;;;11.57;6.70;;;17.30;90.00;;;;;;5079206;28;20447;-48
2022/03/15 12:28:03;;;;;;;11.63;5.90;;;17.10;90.30;;;;;;5080476;28;20499;-50
2022/03/15 12:30:36;;;;;;;7.20;6.50;;;17.20;90.20;;;;;;5079638;28;20723;-50
2022/03/15 12:33:03;;;;;;;9.97;6.13;;;17.40;90.00;;;;;;5080487;28;20725;-47
2022/03/15 12:35:32;;;;;;;6.40;5.73;;;17.60;89.70;;;;;;5080149;28;20422;-51
2022/03/15 12:38:07;;;;;;;9.40;6.53;;;17.50;89.20;;;;;;5081305;28;20399;-47
2022/03/15 12:40:42;;;;;;;6.77;5.30;;;17.40;89.70;;;;;;5085726;28;20458;-49
2022/03/15 12:43:24;;;;;;;9.83;5.80;;;17.60;87.80;;;;;;5082409;28;20487;-50
2022/03/15 12:45:52;;;;;;;10.10;5.77;;;17.60;88.80;;;;;;5081017;28;20386;-46
2022/03/15 12:48:48;;;;;;;8.27;5.77;;;17.70;87.90;;;;;;5080828;28;20412;-50
2022/03/15 12:51:17;;;;;;;6.30;5.33;;;17.50;87.70;;;;;;5079898;28;20502;-48
2022/03/15 12:53:48;;;;;;;8.83;5.30;;;17.40;87.60;;;;;;5079770;28;20744;-51
2022/03/15 12:56:15;;;;;;;7.67;5.93;;;17.20;88.80;;;;;;5080652;28;20413;-46